Shelby — WCV6157 — position and weather

sailwx.info

Track history (hours):
 
Tides and Currents Weather Stations Pressure Air Temp Water Temp Dewpoint Dewpoint Depression Visibility Wind Speed Wind Dir Waves Ship Positions

Shelby

Owner: WEEKS MARINE, INC., CRANFORD, NJ. More information available from US FCC via Universal Licensing System and Coast Guard Vessel Documentation Center.

Last reported at 2014-Oct-19 22:33 UTC. Time now 2014-Oct-20 21:18 UTC.
Position N 40°39' W 074°09'.

Length 22 m; draft 3.1 m.

Type: Tug. MMSI: 366939080.

Date/timePositionNaut miles runAvg speedWind from/ knotsBaromVisibWave heightAir tempDewpointWater temp
2014-Oct-19 22:33N 40°39' W 074°09'4 4.0
2014-Oct-19 21:33N 40°41' W 074°05'0 0.0
2014-Oct-19 20:30N 40°41' W 074°05'  
2014-Oct-17 14:22N 40°31' W 074°18'8 3.9
2014-Oct-17 12:19N 40°38' W 074°12'4 5.2
2014-Oct-17 11:28N 40°39' W 074°07'2 2.6
2014-Oct-17 10:32N 40°40' W 074°04'0 0.2
2014-Oct-17 09:16N 40°41' W 074°05'0 0.0
2014-Oct-17 08:19N 40°41' W 074°05'0 0.0
2014-Oct-17 07:31N 40°41' W 074°05'0 0.0
2014-Oct-17 06:31N 40°41' W 074°05'0 0.0
2014-Oct-17 05:31N 40°41' W 074°05'0 0.0
2014-Oct-17 04:31N 40°41' W 074°05'0 0.0
2014-Oct-17 03:31N 40°41' W 074°05'0 0.0
2014-Oct-17 02:31N 40°41' W 074°05'0 0.0
2014-Oct-17 01:31N 40°41' W 074°05'0 0.0
2014-Oct-17 00:31N 40°41' W 074°05'0 0.4
2014-Oct-16 23:27N 40°40' W 074°04'2 2.5
2014-Oct-16 22:33N 40°39' W 074°02'1 0.7
2014-Oct-16 21:33N 40°40' W 074°01'0 0.0
2014-Oct-16 20:33N 40°40' W 074°01'0 0.0
2014-Oct-16 19:33N 40°40' W 074°01'0 0.0
2014-Oct-16 18:33N 40°40' W 074°01'0 0.0
2014-Oct-16 17:33N 40°40' W 074°01'0 0.0
2014-Oct-16 16:33N 40°40' W 074°01'0 0.1
2014-Oct-16 15:33N 40°40' W 074°01'0 0.1
2014-Oct-16 14:33N 40°40' W 074°01'0 0.1
2014-Oct-16 13:31N 40°40' W 074°01'0 0.1
2014-Oct-16 12:26N 40°40' W 074°01'0 0.1
2014-Oct-16 10:12N 40°40' W 074°01'3 1.3
2014-Oct-16 08:04N 40°41' W 074°04'1 1.4
2014-Oct-16 07:33N 40°40' W 074°04'0 0.3
2014-Oct-16 06:06N 40°40' W 074°04'1 0.1
2014-Oct-16 00:29N 40°41' W 074°04'0 0.0
2014-Oct-15 22:16N 40°41' W 074°04'3 2.6
2014-Oct-15 21:14N 40°40' W 074°01'0 0.0
2014-Oct-15 20:32N 40°40' W 074°01'0 0.1
2014-Oct-15 19:31N 40°40' W 074°01'0 0.1
2014-Oct-15 18:12N 40°40' W 074°01'0 0.0
2014-Oct-15 17:33N 40°40' W 074°01'0 0.1
2014-Oct-15 16:28N 40°40' W 074°01'0 0.2
2014-Oct-15 15:33N 40°40' W 074°01'0 0.1
2014-Oct-15 14:32N 40°40' W 074°01'0 0.1
2014-Oct-15 13:33N 40°40' W 074°01'0 0.1
2014-Oct-15 12:27N 40°40' W 074°01'0 0.2
2014-Oct-15 11:31N 40°40' W 074°01'0 0.0
2014-Oct-15 09:31N 40°40' W 074°01'0 0.0
2014-Oct-15 08:31N 40°40' W 074°01'0 0.0
2014-Oct-15 07:31N 40°40' W 074°01'3 2.7
2014-Oct-15 06:29N 40°41' W 074°05'0 0.0
2014-Oct-15 05:32N 40°41' W 074°05'3 0.5
2014-Oct-14 23:17N 40°40' W 074°01'0 0.0
2014-Oct-14 20:05N 40°40' W 074°01'3 1.4
2014-Oct-14 18:04N 40°41' W 074°05'0 0.0
2014-Oct-14 13:23N 40°41' W 074°04'0 0.1
2014-Oct-14 11:29N 40°41' W 074°05'0 0.1
2014-Oct-14 10:30N 40°41' W 074°05'3 0.9
2014-Oct-14 07:26N 40°40' W 074°01'0 0.1
2014-Oct-14 06:33N 40°40' W 074°01'0 0.0
2014-Oct-14 05:33N 40°40' W 074°01'0 0.0
2014-Oct-14 04:27N 40°40' W 074°01'0 0.0
2014-Oct-14 03:33N 40°40' W 074°01'0 0.0
2014-Oct-13 18:14N 40°40' W 074°01'0 0.1
2014-Oct-13 16:25N 40°40' W 074°01'0 0.1
2014-Oct-13 13:30N 40°40' W 074°01'0 0.2
2014-Oct-13 12:32N 40°40' W 074°01'0 0.1
2014-Oct-13 11:29N 40°40' W 074°01'0 0.1
2014-Oct-13 10:29N 40°40' W 074°01'0 0.0
2014-Oct-13 09:32N 40°40' W 074°01'0 0.0
2014-Oct-13 08:33N 40°40' W 074°01'0 0.1
2014-Oct-13 07:26N 40°40' W 074°01'0 0.1
2014-Oct-13 05:28N 40°40' W 074°01'0 0.0
2014-Oct-13 03:29N 40°40' W 074°01'0 0.0
2014-Oct-13 02:26N 40°40' W 074°01'0 0.0
2014-Oct-13 01:29N 40°40' W 074°01'0 0.2
2014-Oct-13 00:23N 40°40' W 074°01'0 0.1
2014-Oct-12 23:29N 40°40' W 074°01'0 0.0
2014-Oct-12 22:23N 40°40' W 074°01'0 0.0
2014-Oct-12 21:14N 40°40' W 074°01'0 0.0
2014-Oct-12 19:08N 40°40' W 074°01'0 0.0
2014-Oct-12 15:33N 40°40' W 074°01'0 0.1
2014-Oct-12 14:21N 40°40' W 074°01'0 0.1
2014-Oct-12 11:29N 40°40' W 074°01'0 0.2
2014-Oct-12 10:30N 40°40' W 074°01'0 0.0
2014-Oct-12 09:33N 40°40' W 074°01'0 0.3
2014-Oct-12 08:33N 40°40' W 074°01'0 0.2
2014-Oct-12 07:32N 40°40' W 074°01'0 0.2
2014-Oct-12 06:33N 40°40' W 074°01'0 0.1
2014-Oct-12 05:32N 40°40' W 074°01'0 0.0
2014-Oct-12 04:32N 40°40' W 074°01'0 0.2
2014-Oct-12 03:32N 40°40' W 074°01'0 0.2
2014-Oct-12 02:33N 40°40' W 074°01'0 0.0
2014-Oct-12 01:33N 40°40' W 074°01'0 0.0
2014-Oct-12 00:33N 40°40' W 074°01'0 0.2
2014-Oct-11 23:33N 40°40' W 074°01'0 0.2
2014-Oct-11 22:33N 40°40' W 074°01'0 0.0
2014-Oct-11 21:33N 40°40' W 074°01'0 0.0
2014-Oct-11 20:33N 40°40' W 074°01'0 0.0
2014-Oct-11 19:33N 40°40' W 074°01'0 0.2
2014-Oct-11 18:33N 40°40' W 074°01'0 0.2
2014-Oct-11 17:31N 40°40' W 074°01'0 0.0
2014-Oct-11 16:34N 40°40' W 074°01'0 0.0
2014-Oct-11 15:33N 40°40' W 074°01'0 0.0
2014-Oct-11 14:33N 40°40' W 074°01'0 0.4
2014-Oct-11 13:31N 40°40' W 074°01'0 0.4
2014-Oct-11 12:33N 40°40' W 074°01'0 0.1
2014-Oct-11 11:31N 40°40' W 074°01'0 0.0
2014-Oct-11 10:31N 40°40' W 074°01'0 0.4
2014-Oct-11 09:33N 40°40' W 074°01'0 0.4
2014-Oct-11 08:31N 40°40' W 074°01'0 0.0
2014-Oct-11 07:31N 40°40' W 074°01'0 0.0
2014-Oct-11 06:31N 40°40' W 074°01'0 0.4
2014-Oct-11 05:31N 40°40' W 074°01'0 0.4
2014-Oct-11 04:32N 40°40' W 074°01'0 0.0
2014-Oct-11 03:32N 40°40' W 074°01'0 0.3
2014-Oct-11 02:32N 40°40' W 074°01'0 0.3
2014-Oct-11 01:32N 40°40' W 074°01'0 0.0
2014-Oct-11 00:32N 40°40' W 074°01'0 0.0
2014-Oct-10 23:32N 40°40' W 074°01'0 0.0
2014-Oct-10 22:32N 40°40' W 074°01'0 0.0
2014-Oct-10 21:31N 40°40' W 074°01'0 0.0
2014-Oct-10 20:31N 40°40' W 074°01'0 0.0
2014-Oct-10 19:31N 40°40' W 074°01'0 0.1
2014-Oct-10 18:33N 40°40' W 074°01'0 0.1
2014-Oct-10 17:33N 40°40' W 074°01'0 0.1
2014-Oct-10 16:33N 40°40' W 074°01'0 0.0
2014-Oct-10 15:33N 40°40' W 074°01'0 0.0
2014-Oct-10 14:33N 40°40' W 074°01'0 0.0
2014-Oct-10 13:33N 40°40' W 074°01'  
Track history (hours):
 
Tides and Currents Weather Stations Pressure Air Temp Water Temp Dewpoint Dewpoint Depression Visibility Wind Speed Wind Dir Waves Ship Positions

Shelby

Owner: WEEKS MARINE, INC., CRANFORD, NJ. More information available from US FCC via Universal Licensing System and Coast Guard Vessel Documentation Center.

Last reported at 2014-Oct-19 22:33 UTC. Time now 2014-Oct-20 21:18 UTC.
Position N 40°39' W 074°09'.

Length 22 m; draft 3.1 m.

Type: Tug. MMSI: 366939080.

Date/timePositionNaut miles runAvg speedWind from/ knotsBaromVisibWave heightAir tempDewpointWater temp
2014-Oct-19 22:33N 40°39' W 074°09'4 4.0
2014-Oct-19 21:33N 40°41' W 074°05'0 0.0
2014-Oct-19 20:30N 40°41' W 074°05'  
2014-Oct-17 14:22N 40°31' W 074°18'8 3.9
2014-Oct-17 12:19N 40°38' W 074°12'4 5.2
2014-Oct-17 11:28N 40°39' W 074°07'2 2.6
2014-Oct-17 10:32N 40°40' W 074°04'0 0.2
2014-Oct-17 09:16N 40°41' W 074°05'0 0.0
2014-Oct-17 08:19N 40°41' W 074°05'0 0.0
2014-Oct-17 07:31N 40°41' W 074°05'0 0.0
2014-Oct-17 06:31N 40°41' W 074°05'0 0.0
2014-Oct-17 05:31N 40°41' W 074°05'0 0.0
2014-Oct-17 04:31N 40°41' W 074°05'0 0.0
2014-Oct-17 03:31N 40°41' W 074°05'0 0.0
2014-Oct-17 02:31N 40°41' W 074°05'0 0.0
2014-Oct-17 01:31N 40°41' W 074°05'0 0.0
2014-Oct-17 00:31N 40°41' W 074°05'0 0.4
2014-Oct-16 23:27N 40°40' W 074°04'2 2.5
2014-Oct-16 22:33N 40°39' W 074°02'1 0.7
2014-Oct-16 21:33N 40°40' W 074°01'0 0.0
2014-Oct-16 20:33N 40°40' W 074°01'0 0.0
2014-Oct-16 19:33N 40°40' W 074°01'0 0.0
2014-Oct-16 18:33N 40°40' W 074°01'0 0.0
2014-Oct-16 17:33N 40°40' W 074°01'0 0.0
2014-Oct-16 16:33N 40°40' W 074°01'0 0.1
2014-Oct-16 15:33N 40°40' W 074°01'0 0.1
2014-Oct-16 14:33N 40°40' W 074°01'0 0.1
2014-Oct-16 13:31N 40°40' W 074°01'0 0.1
2014-Oct-16 12:26N 40°40' W 074°01'0 0.1
2014-Oct-16 10:12N 40°40' W 074°01'3 1.3
2014-Oct-16 08:04N 40°41' W 074°04'1 1.4
2014-Oct-16 07:33N 40°40' W 074°04'0 0.3
2014-Oct-16 06:06N 40°40' W 074°04'1 0.1
2014-Oct-16 00:29N 40°41' W 074°04'0 0.0
2014-Oct-15 22:16N 40°41' W 074°04'3 2.6
2014-Oct-15 21:14N 40°40' W 074°01'0 0.0
2014-Oct-15 20:32N 40°40' W 074°01'0 0.1
2014-Oct-15 19:31N 40°40' W 074°01'0 0.1
2014-Oct-15 18:12N 40°40' W 074°01'0 0.0
2014-Oct-15 17:33N 40°40' W 074°01'0 0.1
2014-Oct-15 16:28N 40°40' W 074°01'0 0.2
2014-Oct-15 15:33N 40°40' W 074°01'0 0.1
2014-Oct-15 14:32N 40°40' W 074°01'0 0.1
2014-Oct-15 13:33N 40°40' W 074°01'0 0.1
2014-Oct-15 12:27N 40°40' W 074°01'0 0.2
2014-Oct-15 11:31N 40°40' W 074°01'0 0.0
2014-Oct-15 09:31N 40°40' W 074°01'0 0.0
2014-Oct-15 08:31N 40°40' W 074°01'0 0.0
2014-Oct-15 07:31N 40°40' W 074°01'3 2.7
2014-Oct-15 06:29N 40°41' W 074°05'0 0.0
2014-Oct-15 05:32N 40°41' W 074°05'3 0.5
2014-Oct-14 23:17N 40°40' W 074°01'0 0.0
2014-Oct-14 20:05N 40°40' W 074°01'3 1.4
2014-Oct-14 18:04N 40°41' W 074°05'0 0.0
2014-Oct-14 13:23N 40°41' W 074°04'0 0.1
2014-Oct-14 11:29N 40°41' W 074°05'0 0.1
2014-Oct-14 10:30N 40°41' W 074°05'3 0.9
2014-Oct-14 07:26N 40°40' W 074°01'0 0.1
2014-Oct-14 06:33N 40°40' W 074°01'0 0.0
2014-Oct-14 05:33N 40°40' W 074°01'0 0.0
2014-Oct-14 04:27N 40°40' W 074°01'0 0.0
2014-Oct-14 03:33N 40°40' W 074°01'0 0.0
2014-Oct-13 18:14N 40°40' W 074°01'0 0.1
2014-Oct-13 16:25N 40°40' W 074°01'0 0.1
2014-Oct-13 13:30N 40°40' W 074°01'0 0.2
2014-Oct-13 12:32N 40°40' W 074°01'0 0.1
2014-Oct-13 11:29N 40°40' W 074°01'0 0.1
2014-Oct-13 10:29N 40°40' W 074°01'0 0.0
2014-Oct-13 09:32N 40°40' W 074°01'0 0.0
2014-Oct-13 08:33N 40°40' W 074°01'0 0.1
2014-Oct-13 07:26N 40°40' W 074°01'0 0.1
2014-Oct-13 05:28N 40°40' W 074°01'0 0.0
2014-Oct-13 03:29N 40°40' W 074°01'0 0.0
2014-Oct-13 02:26N 40°40' W 074°01'0 0.0
2014-Oct-13 01:29N 40°40' W 074°01'0 0.2
2014-Oct-13 00:23N 40°40' W 074°01'0 0.1
2014-Oct-12 23:29N 40°40' W 074°01'0 0.0
2014-Oct-12 22:23N 40°40' W 074°01'0 0.0
2014-Oct-12 21:14N 40°40' W 074°01'0 0.0
2014-Oct-12 19:08N 40°40' W 074°01'0 0.0
2014-Oct-12 15:33N 40°40' W 074°01'0 0.1
2014-Oct-12 14:21N 40°40' W 074°01'0 0.1
2014-Oct-12 11:29N 40°40' W 074°01'0 0.2
2014-Oct-12 10:30N 40°40' W 074°01'0 0.0
2014-Oct-12 09:33N 40°40' W 074°01'0 0.3
2014-Oct-12 08:33N 40°40' W 074°01'0 0.2
2014-Oct-12 07:32N 40°40' W 074°01'0 0.2
2014-Oct-12 06:33N 40°40' W 074°01'0 0.1
2014-Oct-12 05:32N 40°40' W 074°01'0 0.0
2014-Oct-12 04:32N 40°40' W 074°01'0 0.2
2014-Oct-12 03:32N 40°40' W 074°01'0 0.2
2014-Oct-12 02:33N 40°40' W 074°01'0 0.0
2014-Oct-12 01:33N 40°40' W 074°01'0 0.0
2014-Oct-12 00:33N 40°40' W 074°01'0 0.2
2014-Oct-11 23:33N 40°40' W 074°01'0 0.2
2014-Oct-11 22:33N 40°40' W 074°01'0 0.0
2014-Oct-11 21:33N 40°40' W 074°01'0 0.0
2014-Oct-11 20:33N 40°40' W 074°01'0 0.0
2014-Oct-11 19:33N 40°40' W 074°01'0 0.2
2014-Oct-11 18:33N 40°40' W 074°01'0 0.2
2014-Oct-11 17:31N 40°40' W 074°01'0 0.0
2014-Oct-11 16:34N 40°40' W 074°01'0 0.0
2014-Oct-11 15:33N 40°40' W 074°01'0 0.0
2014-Oct-11 14:33N 40°40' W 074°01'0 0.4
2014-Oct-11 13:31N 40°40' W 074°01'0 0.4
2014-Oct-11 12:33N 40°40' W 074°01'0 0.1
2014-Oct-11 11:31N 40°40' W 074°01'0 0.0
2014-Oct-11 10:31N 40°40' W 074°01'0 0.4
2014-Oct-11 09:33N 40°40' W 074°01'0 0.4
2014-Oct-11 08:31N 40°40' W 074°01'0 0.0
2014-Oct-11 07:31N 40°40' W 074°01'0 0.0
2014-Oct-11 06:31N 40°40' W 074°01'0 0.4
2014-Oct-11 05:31N 40°40' W 074°01'0 0.4
2014-Oct-11 04:32N 40°40' W 074°01'0 0.0
2014-Oct-11 03:32N 40°40' W 074°01'0 0.3
2014-Oct-11 02:32N 40°40' W 074°01'0 0.3
2014-Oct-11 01:32N 40°40' W 074°01'0 0.0
2014-Oct-11 00:32N 40°40' W 074°01'0 0.0
2014-Oct-10 23:32N 40°40' W 074°01'0 0.0
2014-Oct-10 22:32N 40°40' W 074°01'0 0.0
2014-Oct-10 21:31N 40°40' W 074°01'0 0.0
2014-Oct-10 20:31N 40°40' W 074°01'0 0.0
2014-Oct-10 19:31N 40°40' W 074°01'0 0.1
2014-Oct-10 18:33N 40°40' W 074°01'0 0.1
2014-Oct-10 17:33N 40°40' W 074°01'0 0.1
2014-Oct-10 16:33N 40°40' W 074°01'0 0.0
2014-Oct-10 15:33N 40°40' W 074°01'0 0.0
2014-Oct-10 14:33N 40°40' W 074°01'0 0.0
2014-Oct-10 13:33N 40°40' W 074°01'  

Dump ship's entire track history